sensor_id;sensor_type;location;lat;lon;timestamp;pressure;altitude;pressure_sealevel;temperature;humidity
30897;BME280;64229;52.246;21.054;2023-05-20T00:00:11;101708.09;;;13.42;98.50
30897;BME280;64229;52.246;21.054;2023-05-20T00:02:36;101697.63;;;13.40;98.42
30897;BME280;64229;52.246;21.054;2023-05-20T00:05:02;101700.53;;;13.39;98.65
30897;BME280;64229;52.246;21.054;2023-05-20T00:07:27;101667.88;;;13.20;98.43
30897;BME280;64229;52.246;21.054;2023-05-20T00:09:53;101687.63;;;13.36;98.23
30897;BME280;64229;52.246;21.054;2023-05-20T00:12:18;101687.34;;;13.32;98.15
30897;BME280;64229;52.246;21.054;2023-05-20T00:14:43;101686.44;;;13.26;98.25
30897;BME280;64229;52.246;21.054;2023-05-20T00:17:09;101685.63;;;13.26;98.57
30897;BME280;64229;52.246;21.054;2023-05-20T00:19:34;101662.59;;;13.08;98.53
30897;BME280;64229;52.246;21.054;2023-05-20T00:22:00;101681.03;;;13.21;98.07
30897;BME280;64229;52.246;21.054;2023-05-20T00:24:26;101683.34;;;13.18;98.24
30897;BME280;64229;52.246;21.054;2023-05-20T00:26:51;101654.97;;;13.00;98.53
30897;BME280;64229;52.246;21.054;2023-05-20T00:29:16;101682.47;;;13.12;98.57
30897;BME280;64229;52.246;21.054;2023-05-20T00:31:42;101657.66;;;13.00;98.58
30897;BME280;64229;52.246;21.054;2023-05-20T00:34:08;101669.19;;;13.00;98.59
30897;BME280;64229;52.246;21.054;2023-05-20T00:36:34;101683.72;;;13.04;98.98
30897;BME280;64229;52.246;21.054;2023-05-20T00:39:00;101683.16;;;13.02;99.01
30897;BME280;64229;52.246;21.054;2023-05-20T00:41:25;101657.50;;;12.90;99.21
30897;BME280;64229;52.246;21.054;2023-05-20T00:43:55;101680.88;;;12.94;99.16
30897;BME280;64229;52.246;21.054;2023-05-20T00:46:21;101683.25;;;12.91;99.61
30897;BME280;64229;52.246;21.054;2023-05-20T00:48:48;101673.75;;;12.83;99.76
30897;BME280;64229;52.246;21.054;2023-05-20T00:51:14;101676.69;;;12.82;99.93
30897;BME280;64229;52.246;21.054;2023-05-20T00:53:40;101682.53;;;12.79;99.98
30897;BME280;64229;52.246;21.054;2023-05-20T00:56:07;101681.38;;;12.74;100.00
30897;BME280;64229;52.246;21.054;2023-05-20T00:58:33;101683.25;;;12.74;100.00
30897;BME280;64229;52.246;21.054;2023-05-20T01:01:00;101688.06;;;12.72;100.00
30897;BME280;64229;52.246;21.054;2023-05-20T01:03:26;101685.88;;;12.69;100.00
30897;BME280;64229;52.246;21.054;2023-05-20T01:05:52;101689.38;;;12.69;100.00
30897;BME280;64229;52.246;21.054;2023-05-20T01:08:17;101665.84;;;12.55;100.00
30897;BME280;64229;52.246;21.054;2023-05-20T01:10:45;101689.06;;;12.66;100.00
30897;BME280;64229;52.246;21.054;2023-05-20T01:13:16;101681.22;;;12.64;100.00
30897;BME280;64229;52.246;21.054;2023-05-20T01:15:45;101679.06;;;12.61;100.00
30897;BME280;64229;52.246;21.054;2023-05-20T01:18:13;101683.34;;;12.62;100.00
30897;BME280;64229;52.246;21.054;2023-05-20T01:20:42;101684.16;;;12.63;100.00
30897;BME280;64229;52.246;21.054;2023-05-20T01:23:10;101687.09;;;12.61;100.00
30897;BME280;64229;52.246;21.054;2023-05-20T01:25:35;101678.81;;;12.63;100.00
30897;BME280;64229;52.246;21.054;2023-05-20T01:28:00;101677.69;;;12.59;100.00
30897;BME280;64229;52.246;21.054;2023-05-20T01:30:29;101684.16;;;12.63;100.00
30897;BME280;64229;52.246;21.054;2023-05-20T01:33:00;101681.47;;;12.63;100.00
30897;BME280;64229;52.246;21.054;2023-05-20T01:35:28;101680.09;;;12.60;100.00
30897;BME280;64229;52.246;21.054;2023-05-20T01:37:54;101683.03;;;12.59;100.00
30897;BME280;64229;52.246;21.054;2023-05-20T01:40:22;101684.66;;;12.60;100.00
30897;BME280;64229;52.246;21.054;2023-05-20T01:42:49;101682.78;;;12.60;100.00
30897;BME280;64229;52.246;21.054;2023-05-20T01:45:17;101681.16;;;12.59;100.00
30897;BME280;64229;52.246;21.054;2023-05-20T01:47:47;101681.72;;;12.61;100.00
30897;BME280;64229;52.246;21.054;2023-05-20T01:50:13;101672.56;;;12.57;100.00
30897;BME280;64229;52.246;21.054;2023-05-20T01:52:39;101672.81;;;12.56;100.00
30897;BME280;64229;52.246;21.054;2023-05-20T01:55:04;101656.75;;;12.56;100.00
30897;BME280;64229;52.246;21.054;2023-05-20T01:57:30;101668.28;;;12.56;100.00
30897;BME280;64229;52.246;21.054;2023-05-20T01:59:55;101665.59;;;12.56;100.00
30897;BME280;64229;52.246;21.054;2023-05-20T02:02:20;101630.38;;;12.31;100.00
30897;BME280;64229;52.246;21.054;2023-05-20T02:04:49;101662.25;;;12.49;100.00
30897;BME280;64229;52.246;21.054;2023-05-20T02:07:15;101663.06;;;12.50;100.00
30897;BME280;64229;52.246;21.054;2023-05-20T02:09:42;101667.88;;;12.48;100.00
30897;BME280;64229;52.246;21.054;2023-05-20T02:12:08;101663.31;;;12.48;100.00
30897;BME280;64229;52.246;21.054;2023-05-20T02:14:34;101661.69;;;12.47;100.00
30897;BME280;64229;52.246;21.054;2023-05-20T02:16:59;101657.31;;;12.41;100.00
30897;BME280;64229;52.246;21.054;2023-05-20T02:19:24;101658.47;;;12.45;100.00
30897;BME280;64229;52.246;21.054;2023-05-20T02:21:50;101665.09;;;12.42;100.00
30897;BME280;64229;52.246;21.054;2023-05-20T02:24:16;101658.94;;;12.42;100.00
30897;BME280;64229;52.246;21.054;2023-05-20T02:26:41;101663.16;;;12.38;100.00
30897;BME280;64229;52.246;21.054;2023-05-20T02:29:08;101660.47;;;12.38;100.00
30897;BME280;64229;52.246;21.054;2023-05-20T02:31:33;101673.88;;;12.38;100.00
30897;BME280;64229;52.246;21.054;2023-05-20T02:33:59;101642.31;;;12.23;100.00
30897;BME280;64229;52.246;21.054;2023-05-20T02:36:25;101626.28;;;12.11;100.00
30897;BME280;64229;52.246;21.054;2023-05-20T02:38:52;101671.44;;;12.36;100.00
30897;BME280;64229;52.246;21.054;2023-05-20T02:41:21;101680.53;;;12.35;100.00
30897;BME280;64229;52.246;21.054;2023-05-20T02:43:46;101668.75;;;12.36;100.00
30897;BME280;64229;52.246;21.054;2023-05-20T02:46:11;101678.97;;;12.39;100.00
30897;BME280;64229;52.246;21.054;2023-05-20T02:48:37;101651.38;;;12.22;100.00
30897;BME280;64229;52.246;21.054;2023-05-20T02:51:02;101674.44;;;12.40;100.00
30897;BME280;64229;52.246;21.054;2023-05-20T02:53:27;101677.09;;;12.40;100.00
30897;BME280;64229;52.246;21.054;2023-05-20T02:55:52;101676.03;;;12.41;100.00
30897;BME280;64229;52.246;21.054;2023-05-20T02:58:18;101679.28;;;12.43;100.00
30897;BME280;64229;52.246;21.054;2023-05-20T03:00:50;101681.97;;;12.43;100.00
30897;BME280;64229;52.246;21.054;2023-05-20T03:03:15;101680.59;;;12.40;100.00
30897;BME280;64229;52.246;21.054;2023-05-20T03:05:41;101674.53;;;12.45;100.00
30897;BME280;64229;52.246;21.054;2023-05-20T03:08:10;101679.06;;;12.44;100.00
30897;BME280;64229;52.246;21.054;2023-05-20T03:10:37;101673.47;;;12.46;100.00
30897;BME280;64229;52.246;21.054;2023-05-20T03:13:04;101674.03;;;12.48;100.00
30897;BME280;64229;52.246;21.054;2023-05-20T03:15:33;101678.06;;;12.51;100.00
30897;BME280;64229;52.246;21.054;2023-05-20T03:17:59;101676.22;;;12.51;100.00
30897;BME280;64229;52.246;21.054;2023-05-20T03:20:24;101674.03;;;12.48;100.00
30897;BME280;64229;52.246;21.054;2023-05-20T03:22:51;101674.84;;;12.49;100.00
30897;BME280;64229;52.246;21.054;2023-05-20T03:25:16;101678.88;;;12.51;100.00
30897;BME280;64229;52.246;21.054;2023-05-20T03:27:41;101685.63;;;12.54;100.00
30897;BME280;64229;52.246;21.054;2023-05-20T03:30:09;101685.63;;;12.54;100.00
30897;BME280;64229;52.246;21.054;2023-05-20T03:32:34;101681.91;;;12.55;100.00
30897;BME280;64229;52.246;21.054;2023-05-20T03:34:59;101683.28;;;12.57;100.00
30897;BME280;64229;52.246;21.054;2023-05-20T03:37:25;101689.44;;;12.58;100.00
30897;BME280;64229;52.246;21.054;2023-05-20T03:39:50;101678.38;;;12.54;100.00
30897;BME280;64229;52.246;21.054;2023-05-20T03:42:15;101693.25;;;12.62;100.00
30897;BME280;64229;52.246;21.054;2023-05-20T03:44:40;101690.31;;;12.63;100.00
30897;BME280;64229;52.246;21.054;2023-05-20T03:47:06;101673.94;;;12.60;100.00
30897;BME280;64229;52.246;21.054;2023-05-20T03:49:31;101668.03;;;12.58;100.00
30897;BME280;64229;52.246;21.054;2023-05-20T03:51:56;101671.13;;;12.66;99.98
30897;BME280;64229;52.246;21.054;2023-05-20T03:54:22;101684.56;;;12.71;99.93
30897;BME280;64229;52.246;21.054;2023-05-20T03:56:47;101685.13;;;12.73;99.51
30897;BME280;64229;52.246;21.054;2023-05-20T03:59:13;101653.56;;;12.59;99.63
30897;BME280;64229;52.246;21.054;2023-05-20T04:01:39;101688.53;;;12.86;99.60
30897;BME280;64229;52.246;21.054;2023-05-20T04:04:04;101681.63;;;12.90;99.32
30897;BME280;64229;52.246;21.054;2023-05-20T04:06:30;101683.56;;;12.94;98.93
30897;BME280;64229;52.246;21.054;2023-05-20T04:08:55;101690.63;;;13.00;98.72
30897;BME280;64229;52.246;21.054;2023-05-20T04:11:21;101677.84;;;13.08;98.55
30897;BME280;64229;52.246;21.054;2023-05-20T04:13:46;101670.63;;;13.08;98.12
30897;BME280;64229;52.246;21.054;2023-05-20T04:16:11;101673.38;;;13.13;97.78
30897;BME280;64229;52.246;21.054;2023-05-20T04:18:37;101683.28;;;13.29;97.27
30897;BME280;64229;52.246;21.054;2023-05-20T04:21:03;101686.81;;;13.35;96.52
30897;BME280;64229;52.246;21.054;2023-05-20T04:23:29;101690.44;;;13.46;96.46
30897;BME280;64229;52.246;21.054;2023-05-20T04:25:54;101691.88;;;13.53;95.29
30897;BME280;64229;52.246;21.054;2023-05-20T04:28:19;101689.31;;;13.64;94.98
30897;BME280;64229;52.246;21.054;2023-05-20T04:30:48;101686.75;;;13.74;94.58
30897;BME280;64229;52.246;21.054;2023-05-20T04:33:14;101684.94;;;13.79;93.95
30897;BME280;64229;52.246;21.054;2023-05-20T04:35:40;101690.63;;;13.83;93.50
30897;BME280;64229;52.246;21.054;2023-05-20T04:38:06;101684.19;;;13.84;93.14
30897;BME280;64229;52.246;21.054;2023-05-20T04:40:32;101685.59;;;13.92;93.22
30897;BME280;64229;52.246;21.054;2023-05-20T04:43:01;101667.03;;;13.85;92.58
30897;BME280;64229;52.246;21.054;2023-05-20T04:45:27;101680.59;;;14.00;92.41
30897;BME280;64229;52.246;21.054;2023-05-20T04:47:53;101676.09;;;14.06;92.71
30897;BME280;64229;52.246;21.054;2023-05-20T04:50:18;101679.41;;;14.18;91.75
30897;BME280;64229;52.246;21.054;2023-05-20T04:52:45;101674.88;;;14.24;91.87
30897;BME280;64229;52.246;21.054;2023-05-20T04:55:11;101677.91;;;14.32;91.09
30897;BME280;64229;52.246;21.054;2023-05-20T04:57:38;101683.63;;;14.41;90.63
30897;BME280;64229;52.246;21.054;2023-05-20T05:00:07;101684.00;;;14.50;90.15
30897;BME280;64229;52.246;21.054;2023-05-20T05:02:33;101695.09;;;14.58;90.02
30897;BME280;64229;52.246;21.054;2023-05-20T05:04:59;101683.84;;;14.61;89.36
30897;BME280;64229;52.246;21.054;2023-05-20T05:07:24;101695.75;;;14.75;89.04
30897;BME280;64229;52.246;21.054;2023-05-20T05:09:49;101688.03;;;14.84;88.60
30897;BME280;64229;52.246;21.054;2023-05-20T05:12:15;101694.81;;;14.97;87.86
30897;BME280;64229;52.246;21.054;2023-05-20T05:14:40;101694.06;;;15.07;86.53
30897;BME280;64229;52.246;21.054;2023-05-20T05:17:06;101689.56;;;15.17;86.45
30897;BME280;64229;52.246;21.054;2023-05-20T05:19:31;101683.94;;;15.24;85.67
30897;BME280;64229;52.246;21.054;2023-05-20T05:21:56;101685.56;;;15.30;86.26
30897;BME280;64229;52.246;21.054;2023-05-20T05:24:22;101687.50;;;15.34;86.08
30897;BME280;64229;52.246;21.054;2023-05-20T05:26:47;101687.00;;;15.43;85.59
30897;BME280;64229;52.246;21.054;2023-05-20T05:29:13;101684.09;;;15.54;84.71
30897;BME280;64229;52.246;21.054;2023-05-20T05:31:38;101652.25;;;15.41;84.20
30897;BME280;64229;52.246;21.054;2023-05-20T05:34:04;101685.25;;;15.74;83.31
30897;BME280;64229;52.246;21.054;2023-05-20T05:36:32;101692.25;;;15.80;82.53
30897;BME280;64229;52.246;21.054;2023-05-20T05:38:57;101694.97;;;15.85;82.51
30897;BME280;64229;52.246;21.054;2023-05-20T05:41:23;101699.03;;;15.98;82.26
30897;BME280;64229;52.246;21.054;2023-05-20T05:43:48;101693.66;;;16.08;81.24
30897;BME280;64229;52.246;21.054;2023-05-20T05:46:13;101698.53;;;16.11;80.26
30897;BME280;64229;52.246;21.054;2023-05-20T05:48:38;101699.88;;;16.29;80.39
30897;BME280;64229;52.246;21.054;2023-05-20T05:51:06;101700.69;;;16.44;79.95
30897;BME280;64229;52.246;21.054;2023-05-20T05:53:31;101693.13;;;16.57;79.13
30897;BME280;64229;52.246;21.054;2023-05-20T05:55:57;101702.31;;;16.56;78.43
30897;BME280;64229;52.246;21.054;2023-05-20T05:58:22;101704.72;;;16.57;78.75
30897;BME280;64229;52.246;21.054;2023-05-20T06:00:50;101699.06;;;16.64;79.02
30897;BME280;64229;52.246;21.054;2023-05-20T06:03:15;101700.44;;;16.82;78.82
30897;BME280;64229;52.246;21.054;2023-05-20T06:05:44;101702.00;;;16.98;77.72
30897;BME280;64229;52.246;21.054;2023-05-20T06:08:10;101707.13;;;17.15;77.30
30897;BME280;64229;52.246;21.054;2023-05-20T06:10:35;101697.88;;;17.31;76.74
30897;BME280;64229;52.246;21.054;2023-05-20T06:13:00;101703.47;;;17.50;75.58
30897;BME280;64229;52.246;21.054;2023-05-20T06:15:26;101693.44;;;17.60;74.43
30897;BME280;64229;52.246;21.054;2023-05-20T06:17:51;101696.94;;;17.66;73.24
30897;BME280;64229;52.246;21.054;2023-05-20T06:20:17;101692.63;;;17.60;73.14
30897;BME280;64229;52.246;21.054;2023-05-20T06:22:42;101689.09;;;17.64;73.10
30897;BME280;64229;52.246;21.054;2023-05-20T06:25:08;101695.31;;;17.70;73.19
30897;BME280;64229;52.246;21.054;2023-05-20T06:27:33;101693.88;;;17.83;72.68
30897;BME280;64229;52.246;21.054;2023-05-20T06:29:58;101690.31;;;17.98;72.16
30897;BME280;64229;52.246;21.054;2023-05-20T06:32:24;101680.03;;;18.00;72.03
30897;BME280;64229;52.246;21.054;2023-05-20T06:34:49;101695.31;;;18.14;71.68
30897;BME280;64229;52.246;21.054;2023-05-20T06:37:15;101683.66;;;18.19;71.87
30897;BME280;64229;52.246;21.054;2023-05-20T06:39:40;101691.66;;;18.34;71.82
30897;BME280;64229;52.246;21.054;2023-05-20T06:42:06;101692.88;;;18.52;71.54
30897;BME280;64229;52.246;21.054;2023-05-20T06:44:31;101681.94;;;18.67;71.50
30897;BME280;64229;52.246;21.054;2023-05-20T06:46:56;101676.94;;;18.79;70.94
30897;BME280;64229;52.246;21.054;2023-05-20T06:49:22;101673.91;;;18.86;70.02
30897;BME280;64229;52.246;21.054;2023-05-20T06:51:48;101679.53;;;19.14;68.97
30897;BME280;64229;52.246;21.054;2023-05-20T06:54:14;101644.50;;;19.03;68.88
30897;BME280;64229;52.246;21.054;2023-05-20T06:56:39;101682.06;;;19.29;68.90
30897;BME280;64229;52.246;21.054;2023-05-20T06:59:05;101672.94;;;19.44;69.03
30897;BME280;64229;52.246;21.054;2023-05-20T07:01:30;101678.22;;;19.59;67.72
30897;BME280;64229;52.246;21.054;2023-05-20T07:03:55;101670.59;;;19.61;65.83
30897;BME280;64229;52.246;21.054;2023-05-20T07:06:21;101664.78;;;19.49;66.33
30897;BME280;64229;52.246;21.054;2023-05-20T07:08:47;101648.44;;;19.54;66.23
30897;BME280;64229;52.246;21.054;2023-05-20T07:11:12;101667.66;;;19.76;65.85
30897;BME280;64229;52.246;21.054;2023-05-20T07:13:37;101669.81;;;19.79;65.92
30897;BME280;64229;52.246;21.054;2023-05-20T07:16:03;101663.84;;;19.96;65.23
30897;BME280;64229;52.246;21.054;2023-05-20T07:18:28;101663.50;;;20.68;63.20
30897;BME280;64229;52.246;21.054;2023-05-20T07:20:54;101662.66;;;23.06;56.16
30897;BME280;64229;52.246;21.054;2023-05-20T07:23:21;101662.03;;;25.42;48.46
30897;BME280;64229;52.246;21.054;2023-05-20T07:25:47;101661.94;;;27.03;43.22
30897;BME280;64229;52.246;21.054;2023-05-20T07:28:14;101665.19;;;28.58;41.52
30897;BME280;64229;52.246;21.054;2023-05-20T07:30:41;101668.06;;;30.02;36.89
30897;BME280;64229;52.246;21.054;2023-05-20T07:33:06;101663.63;;;30.81;34.62
30897;BME280;64229;52.246;21.054;2023-05-20T07:35:31;101661.44;;;30.94;33.32
30897;BME280;64229;52.246;21.054;2023-05-20T07:37:57;101647.09;;;30.81;33.17
30897;BME280;64229;52.246;21.054;2023-05-20T07:40:23;101645.41;;;30.73;33.35
30897;BME280;64229;52.246;21.054;2023-05-20T07:42:48;101639.22;;;31.06;32.20
